Time;durP1;ratioP1;P1;durP2;ratioP2;P2;SDS_P1;SDS_P2;PMS_P1;PMS_P2;Temp;Humidity;BMP_temperature;BMP_pressure;BME280_temperature;BME280_humidity;BME280_pressure;Samples;Min_cycle;Max_cycle;Signal;HPM_P1;HPM_P2
2023/12/10 00:01:14;;;;;;;15.07;4.18;;;9.70;99.90;;;;;;5113526;28;20166;-60
2023/12/10 00:03:40;;;;;;;19.15;4.90;;;9.70;99.90;;;;;;5115162;28;20580;-60
2023/12/10 00:06:07;;;;;;;19.83;4.75;;;9.70;99.90;;;;;;5117047;28;20205;-61
2023/12/10 00:08:32;;;;;;;19.38;5.32;;;9.70;99.90;;;;;;5116923;28;20705;-60
2023/12/10 00:10:58;;;;;;;17.58;4.85;;;9.80;99.90;;;;;;5117556;28;20257;-60
2023/12/10 00:13:24;;;;;;;19.20;5.18;;;9.70;99.90;;;;;;5117242;28;20174;-60
2023/12/10 00:15:50;;;;;;;21.70;5.30;;;9.70;99.90;;;;;;5116973;28;20626;-61
2023/12/10 00:18:16;;;;;;;15.40;4.03;;;9.70;99.90;;;;;;5117115;28;20177;-60
2023/12/10 00:20:43;;;;;;;19.25;4.68;;;9.70;99.90;;;;;;5117137;28;20869;-60
2023/12/10 00:23:11;;;;;;;20.63;5.30;;;9.70;99.90;;;;;;5116672;28;20689;-60
2023/12/10 00:25:43;;;;;;;15.60;4.70;;;9.60;99.90;;;;;;5116580;28;20657;-60
2023/12/10 00:28:08;;;;;;;18.25;4.30;;;9.70;99.90;;;;;;5117026;28;20233;-60
2023/12/10 00:30:34;;;;;;;17.17;4.35;;;9.70;99.90;;;;;;5116885;28;20169;-60
2023/12/10 00:33:00;;;;;;;21.48;5.38;;;9.70;99.90;;;;;;5116884;28;20173;-61
2023/12/10 00:35:26;;;;;;;15.73;3.90;;;9.60;99.90;;;;;;5116781;28;20250;-61
2023/12/10 00:37:51;;;;;;;18.25;4.22;;;9.60;99.90;;;;;;5116505;28;20231;-61
2023/12/10 00:40:17;;;;;;;13.45;4.10;;;9.60;99.90;;;;;;5116717;28;20173;-60
2023/12/10 00:42:43;;;;;;;19.20;4.30;;;9.80;99.90;;;;;;5116669;28;20260;-60
2023/12/10 00:45:09;;;;;;;18.55;4.47;;;9.90;99.90;;;;;;5115158;28;20232;-60
2023/12/10 00:47:36;;;;;;;16.60;4.47;;;9.90;99.90;;;;;;5116209;28;20201;-60
2023/12/10 00:50:03;;;;;;;16.95;4.60;;;9.80;99.90;;;;;;5116187;28;20538;-60
2023/12/10 00:52:28;;;;;;;18.33;4.50;;;9.80;99.90;;;;;;5116510;28;20173;-60
2023/12/10 00:54:54;;;;;;;20.45;4.25;;;9.70;99.90;;;;;;5116078;28;20274;-60
2023/12/10 00:57:20;;;;;;;16.38;3.70;;;9.70;99.90;;;;;;5115165;28;20182;-60
2023/12/10 00:59:45;;;;;;;19.75;4.47;;;9.70;99.90;;;;;;5115092;28;20177;-60
2023/12/10 01:02:11;;;;;;;17.30;4.65;;;9.60;99.90;;;;;;5116233;28;20268;-60
2023/12/10 01:04:37;;;;;;;18.85;4.28;;;9.80;99.90;;;;;;5116280;28;20174;-60
2023/12/10 01:07:03;;;;;;;16.77;4.65;;;9.70;99.90;;;;;;5115909;28;20676;-61
2023/12/10 01:09:29;;;;;;;16.20;4.35;;;9.80;99.90;;;;;;5116148;28;20644;-60
2023/12/10 01:11:54;;;;;;;17.77;4.05;;;9.80;99.90;;;;;;5116092;28;20202;-61
2023/12/10 01:14:20;;;;;;;19.17;5.22;;;9.70;99.90;;;;;;5115287;28;20256;-60
2023/12/10 01:16:45;;;;;;;19.05;4.38;;;9.80;99.90;;;;;;5115602;28;20177;-61
2023/12/10 01:19:11;;;;;;;15.77;3.80;;;9.90;99.90;;;;;;5116276;28;20633;-61
2023/12/10 01:21:37;;;;;;;20.13;4.65;;;9.90;99.90;;;;;;5115489;28;20229;-60
2023/12/10 01:24:03;;;;;;;19.23;4.63;;;9.80;99.90;;;;;;5115916;28;20246;-60
2023/12/10 01:26:29;;;;;;;13.75;3.55;;;9.80;99.90;;;;;;5115526;28;20220;-61
2023/12/10 01:28:55;;;;;;;15.43;4.00;;;9.70;99.90;;;;;;5115774;28;20642;-61
2023/12/10 01:31:21;;;;;;;17.08;3.88;;;9.60;99.90;;;;;;5115782;28;20569;-61
2023/12/10 01:33:46;;;;;;;15.68;4.00;;;9.60;99.90;;;;;;5115409;28;20256;-60
2023/12/10 01:36:23;;;;;;;18.33;4.18;;;9.60;99.90;;;;;;5115563;28;20181;-60
2023/12/10 01:38:49;;;;;;;15.25;4.15;;;9.60;99.90;;;;;;5115606;28;20621;-60
2023/12/10 01:41:16;;;;;;;16.45;4.60;;;9.60;99.90;;;;;;5115479;28;20173;-60
2023/12/10 01:43:43;;;;;;;14.65;3.60;;;9.70;99.90;;;;;;5115427;28;20202;-60
2023/12/10 01:46:08;;;;;;;17.83;4.55;;;9.80;99.90;;;;;;5115081;28;20207;-60
2023/12/10 01:48:35;;;;;;;13.52;3.70;;;9.70;99.90;;;;;;5115429;28;20181;-60
2023/12/10 01:51:01;;;;;;;15.70;3.92;;;9.70;99.90;;;;;;5115344;28;20184;-60
2023/12/10 01:53:27;;;;;;;16.17;3.92;;;9.70;99.90;;;;;;5115293;28;20174;-60
2023/12/10 01:55:52;;;;;;;14.88;4.05;;;9.70;99.90;;;;;;5115272;28;20519;-60
2023/12/10 01:58:18;;;;;;;14.18;4.22;;;9.70;99.90;;;;;;5115227;28;20205;-60
2023/12/10 02:00:44;;;;;;;18.90;4.60;;;9.80;99.90;;;;;;5115165;28;20695;-60
2023/12/10 02:03:10;;;;;;;14.00;4.07;;;9.80;99.90;;;;;;5115008;28;20199;-60
2023/12/10 02:05:36;;;;;;;16.90;4.63;;;9.80;99.90;;;;;;5114993;28;20525;-60
2023/12/10 02:08:02;;;;;;;14.43;4.35;;;9.80;99.90;;;;;;5114947;28;20181;-60
2023/12/10 02:10:28;;;;;;;19.75;5.05;;;9.90;99.90;;;;;;5114970;28;20630;-60
2023/12/10 02:12:55;;;;;;;12.93;3.80;;;9.80;99.90;;;;;;5114907;28;20245;-60
2023/12/10 02:15:21;;;;;;;16.83;4.85;;;9.90;99.90;;;;;;5114879;28;20641;-60
2023/12/10 02:17:49;;;;;;;12.88;3.17;;;9.70;99.90;;;;;;5115131;28;20179;-60
2023/12/10 02:20:16;;;;;;;18.77;4.70;;;9.70;99.90;;;;;;5114718;28;20173;-60
2023/12/10 02:23:22;;;;;;;17.48;3.70;;;9.70;99.90;;;;;;5114729;28;20221;-60
2023/12/10 02:25:48;;;;;;;15.63;3.33;;;9.70;99.90;;;;;;5109964;28;20185;-60
2023/12/10 02:28:21;;;;;;;16.60;4.05;;;9.80;99.90;;;;;;5114636;28;20169;-60
2023/12/10 02:30:47;;;;;;;16.55;3.85;;;9.70;99.90;;;;;;5114599;28;20200;-60
2023/12/10 02:33:12;;;;;;;16.75;4.30;;;9.80;99.90;;;;;;5114535;28;20212;-60
2023/12/10 02:35:38;;;;;;;15.20;3.65;;;9.80;99.90;;;;;;5114540;28;20256;-60
2023/12/10 02:38:04;;;;;;;12.63;4.32;;;9.90;99.90;;;;;;5114408;28;20180;-60
2023/12/10 02:40:30;;;;;;;16.77;4.13;;;9.80;99.90;;;;;;5114402;28;20173;-60
2023/12/10 02:42:56;;;;;;;16.77;4.50;;;9.90;99.90;;;;;;5114415;28;20496;-60
2023/12/10 02:45:22;;;;;;;16.30;3.72;;;9.90;99.90;;;;;;5114383;28;20184;-61
2023/12/10 02:47:47;;;;;;;16.52;3.95;;;9.90;99.90;;;;;;5114191;28;20205;-60
2023/12/10 02:50:13;;;;;;;18.90;4.32;;;9.90;99.90;;;;;;5114351;28;20225;-60
2023/12/10 02:52:39;;;;;;;17.77;4.00;;;9.90;99.90;;;;;;5114204;28;20626;-61
2023/12/10 02:55:05;;;;;;;14.68;4.57;;;9.90;99.90;;;;;;5114215;28;20203;-60
2023/12/10 02:57:31;;;;;;;14.48;3.85;;;10.00;99.90;;;;;;5113004;28;20173;-60
2023/12/10 02:59:57;;;;;;;15.40;3.78;;;10.10;99.90;;;;;;5114150;28;20530;-60
2023/12/10 03:02:22;;;;;;;18.92;3.90;;;10.00;99.90;;;;;;5114127;28;20169;-60
2023/12/10 03:04:48;;;;;;;14.93;3.63;;;10.10;99.90;;;;;;5113919;28;20176;-60
2023/12/10 03:07:14;;;;;;;18.98;4.28;;;10.10;99.90;;;;;;5114020;28;20201;-60
2023/12/10 03:09:40;;;;;;;19.80;4.63;;;10.10;99.90;;;;;;5114027;28;20173;-60
2023/12/10 03:12:06;;;;;;;15.10;5.03;;;10.10;99.90;;;;;;5114039;28;20252;-60
2023/12/10 03:14:31;;;;;;;17.45;4.95;;;10.00;99.90;;;;;;5114073;28;20170;-60
2023/12/10 03:16:57;;;;;;;14.07;4.15;;;10.10;99.90;;;;;;5113910;28;20200;-60
2023/12/10 03:19:23;;;;;;;20.05;4.10;;;10.10;99.90;;;;;;5113868;28;20523;-60
2023/12/10 03:21:48;;;;;;;12.85;3.95;;;10.10;99.90;;;;;;5113793;28;20316;-60
2023/12/10 03:24:14;;;;;;;20.40;4.70;;;10.10;99.90;;;;;;5113618;28;20169;-60
2023/12/10 03:26:39;;;;;;;15.75;4.43;;;10.00;99.90;;;;;;5113832;28;20714;-60
2023/12/10 03:29:05;;;;;;;16.20;4.32;;;10.00;99.90;;;;;;5113806;28;20205;-60
2023/12/10 03:31:31;;;;;;;15.07;4.22;;;9.90;99.90;;;;;;5113762;28;20165;-60
2023/12/10 03:33:57;;;;;;;17.45;4.28;;;9.90;99.90;;;;;;5113726;28;20626;-60
2023/12/10 03:36:22;;;;;;;18.90;3.95;;;10.00;99.90;;;;;;5113786;28;20190;-60
2023/12/10 03:38:48;;;;;;;19.45;4.65;;;10.00;99.90;;;;;;5115451;28;20181;-60
2023/12/10 03:41:14;;;;;;;17.05;4.35;;;10.00;99.90;;;;;;5117907;27;20208;-60
2023/12/10 03:43:40;;;;;;;18.27;4.20;;;10.00;99.90;;;;;;5117579;28;20173;-60
2023/12/10 03:46:05;;;;;;;16.38;4.63;;;9.90;99.90;;;;;;5116398;28;20274;-60
2023/12/10 03:48:31;;;;;;;16.95;4.35;;;9.90;99.90;;;;;;5117767;28;20179;-60
2023/12/10 03:50:57;;;;;;;16.52;4.15;;;9.90;99.90;;;;;;5117407;28;20169;-60
2023/12/10 03:53:22;;;;;;;19.00;4.63;;;9.90;99.90;;;;;;5117605;28;20178;-60
2023/12/10 03:55:48;;;;;;;18.08;3.75;;;9.90;99.90;;;;;;5117599;28;20280;-60
2023/12/10 03:58:14;;;;;;;18.55;4.65;;;10.10;99.90;;;;;;5117592;28;20611;-60
2023/12/10 04:00:39;;;;;;;19.58;4.82;;;10.00;99.90;;;;;;5117471;27;20173;-60
2023/12/10 04:03:05;;;;;;;17.67;5.40;;;9.90;99.90;;;;;;5117195;28;20166;-60
2023/12/10 04:05:31;;;;;;;13.02;5.07;;;9.90;99.90;;;;;;5117170;28;20178;-60
2023/12/10 04:07:56;;;;;;;12.02;3.38;;;9.90;99.90;;;;;;5117309;28;20197;-62
2023/12/10 04:10:22;;;;;;;19.55;5.40;;;9.90;99.90;;;;;;5117307;28;20170;-60
2023/12/10 04:12:48;;;;;;;14.77;4.53;;;9.90;99.90;;;;;;5117284;28;20521;-60
2023/12/10 04:15:14;;;;;;;18.33;5.10;;;9.90;99.90;;;;;;5117302;28;20174;-60
2023/12/10 04:17:39;;;;;;;15.25;4.82;;;9.90;99.90;;;;;;5117170;28;20182;-60
2023/12/10 04:20:06;;;;;;;17.15;4.40;;;9.80;99.90;;;;;;5117109;28;20173;-60
2023/12/10 04:22:32;;;;;;;16.95;3.65;;;9.80;99.90;;;;;;5117066;28;20221;-60
2023/12/10 04:24:58;;;;;;;16.02;4.90;;;9.90;99.90;;;;;;5116766;28;20287;-60
2023/12/10 04:27:23;;;;;;;16.40;5.20;;;9.90;99.90;;;;;;5116622;28;20199;-60
2023/12/10 04:29:50;;;;;;;14.25;4.07;;;9.90;99.90;;;;;;5116951;28;20260;-60
2023/12/10 04:32:16;;;;;;;16.15;4.10;;;9.80;99.90;;;;;;5116985;28;20177;-60
2023/12/10 04:34:42;;;;;;;19.25;4.97;;;9.90;99.90;;;;;;5116855;28;20294;-60
2023/12/10 04:37:08;;;;;;;14.55;4.13;;;10.00;99.90;;;;;;5116828;28;20178;-60
2023/12/10 04:39:33;;;;;;;17.83;4.25;;;9.90;99.90;;;;;;5116511;28;20645;-60
2023/12/10 04:41:59;;;;;;;18.67;4.38;;;9.90;99.90;;;;;;5116704;28;20272;-60
2023/12/10 04:44:25;;;;;;;18.83;4.00;;;9.70;99.90;;;;;;5116729;28;20733;-60
2023/12/10 04:46:51;;;;;;;16.45;4.40;;;9.60;99.90;;;;;;5116631;28;20201;-61
2023/12/10 04:49:17;;;;;;;19.98;4.38;;;9.60;99.90;;;;;;5116280;28;20268;-60
2023/12/10 04:51:42;;;;;;;18.65;5.43;;;9.70;99.90;;;;;;5116555;28;20260;-60
2023/12/10 04:54:08;;;;;;;17.52;4.28;;;9.60;99.90;;;;;;5116502;28;20177;-60
2023/12/10 04:56:34;;;;;;;20.33;4.75;;;9.60;99.90;;;;;;5116222;28;20596;-60
2023/12/10 04:58:59;;;;;;;18.45;4.43;;;9.60;99.90;;;;;;5116413;28;20177;-60
2023/12/10 05:01:25;;;;;;;15.48;4.70;;;9.50;99.90;;;;;;5116078;28;20199;-60
2023/12/10 05:03:51;;;;;;;13.02;3.92;;;9.40;99.90;;;;;;5116265;28;20617;-60
2023/12/10 05:06:17;;;;;;;15.02;3.85;;;9.30;99.90;;;;;;5116197;28;20288;-60
2023/12/10 05:08:43;;;;;;;17.70;3.53;;;9.30;99.90;;;;;;5115947;28;20181;-60
2023/12/10 05:11:09;;;;;;;15.00;4.13;;;9.40;99.90;;;;;;5116065;28;20181;-60
2023/12/10 05:13:35;;;;;;;15.90;4.43;;;9.40;99.90;;;;;;5116143;28;20177;-60
2023/12/10 05:16:01;;;;;;;20.67;4.38;;;9.40;99.90;;;;;;5116069;28;20234;-60
2023/12/10 05:18:26;;;;;;;21.73;4.18;;;9.40;99.90;;;;;;5115995;28;20177;-60
2023/12/10 05:20:53;;;;;;;22.52;4.65;;;9.40;99.90;;;;;;5115994;28;20675;-61
2023/12/10 05:23:18;;;;;;;18.95;4.28;;;9.30;99.90;;;;;;5115455;28;20240;-61
2023/12/10 05:25:44;;;;;;;19.65;3.95;;;9.40;99.90;;;;;;5115484;28;20166;-60
2023/12/10 05:28:10;;;;;;;22.23;4.85;;;9.30;99.90;;;;;;5115793;28;20182;-60
2023/12/10 05:30:35;;;;;;;23.40;4.88;;;9.40;99.90;;;;;;5115739;28;20265;-60
2023/12/10 05:33:01;;;;;;;16.80;4.18;;;9.30;99.90;;;;;;5115462;28;20179;-60
2023/12/10 05:35:27;;;;;;;17.40;3.78;;;9.40;99.90;;;;;;5115699;28;20684;-60
2023/12/10 05:37:53;;;;;;;21.38;4.63;;;9.20;99.90;;;;;;5115648;28;20264;-60
2023/12/10 05:40:18;;;;;;;13.80;4.25;;;9.30;99.90;;;;;;5115948;28;20180;-60
2023/12/10 05:42:44;;;;;;;19.20;4.30;;;9.30;99.90;;;;;;5115542;28;20177;-60
2023/12/10 05:45:10;;;;;;;18.63;4.05;;;9.30;99.90;;;;;;5115541;28;20248;-60
2023/12/10 05:47:35;;;;;;;22.73;4.63;;;9.30;99.90;;;;;;5115350;28;20197;-60
2023/12/10 05:50:01;;;;;;;19.88;5.63;;;9.30;99.90;;;;;;5115428;28;20173;-60
2023/12/10 05:52:27;;;;;;;17.20;5.97;;;9.40;99.90;;;;;;5115417;28;20178;-60
2023/12/10 05:54:52;;;;;;;18.15;5.50;;;9.20;99.90;;;;;;5115296;28;20211;-60
2023/12/10 05:57:18;;;;;;;20.80;4.85;;;9.20;99.90;;;;;;5115195;28;20366;-60
2023/12/10 05:59:44;;;;;;;23.63;4.97;;;9.10;99.90;;;;;;5115168;28;20268;-61
2023/12/10 06:02:10;;;;;;;22.33;4.03;;;9.30;99.90;;;;;;5114380;28;20191;-61
2023/12/10 06:04:35;;;;;;;16.70;4.53;;;9.30;99.90;;;;;;5115091;28;20256;-60
2023/12/10 06:07:01;;;;;;;15.43;4.55;;;9.30;99.90;;;;;;5114747;28;20254;-60
2023/12/10 06:09:27;;;;;;;21.25;5.03;;;9.20;99.90;;;;;;5114977;28;20272;-60
2023/12/10 06:11:53;;;;;;;21.38;4.53;;;9.20;99.90;;;;;;5114934;28;20625;-60
2023/12/10 06:14:19;;;;;;;21.38;5.90;;;9.20;99.90;;;;;;5114874;28;20184;-60
2023/12/10 06:16:45;;;;;;;19.23;4.60;;;9.20;99.90;;;;;;5113579;28;20188;-60
2023/12/10 06:19:10;;;;;;;20.40;4.75;;;9.20;99.90;;;;;;5114539;28;20165;-60
2023/12/10 06:21:37;;;;;;;21.40;4.85;;;9.20;99.90;;;;;;5114610;28;20319;-60
2023/12/10 06:24:04;;;;;;;23.33;4.72;;;9.10;99.90;;;;;;5114759;28;20306;-60
2023/12/10 06:26:30;;;;;;;21.20;4.15;;;9.00;99.90;;;;;;5114652;28;20531;-60
2023/12/10 06:28:56;;;;;;;17.10;4.07;;;9.10;99.90;;;;;;5114380;28;20192;-61
2023/12/10 06:31:21;;;;;;;16.33;4.35;;;9.10;99.90;;;;;;5114653;28;20606;-60
2023/12/10 06:33:47;;;;;;;23.50;4.65;;;9.10;99.90;;;;;;5114605;28;20169;-60
2023/12/10 06:36:13;;;;;;;17.65;4.35;;;9.00;99.90;;;;;;5114312;28;20588;-61
2023/12/10 06:38:38;;;;;;;18.85;4.15;;;8.90;99.90;;;;;;5114551;28;20223;-60
2023/12/10 06:41:05;;;;;;;19.33;4.38;;;9.00;99.90;;;;;;5114513;28;20172;-60
2023/12/10 06:43:31;;;;;;;21.70;4.40;;;9.00;99.90;;;;;;5114156;28;20180;-60
2023/12/10 06:45:58;;;;;;;20.10;3.83;;;9.10;99.90;;;;;;5114049;28;20161;-60
2023/12/10 06:48:25;;;;;;;13.68;4.13;;;9.00;99.90;;;;;;5114352;28;20233;-60
2023/12/10 06:50:51;;;;;;;22.38;4.50;;;9.00;99.90;;;;;;5114244;28;20177;-63
2023/12/10 06:53:17;;;;;;;19.20;3.92;;;8.90;99.90;;;;;;5114232;28;20256;-61
2023/12/10 06:55:43;;;;;;;18.23;4.80;;;8.80;99.90;;;;;;5114253;28;20240;-61
2023/12/10 06:58:08;;;;;;;24.48;4.38;;;8.80;99.90;;;;;;5114044;28;20260;-61
2023/12/10 07:00:34;;;;;;;17.65;3.65;;;8.80;99.90;;;;;;5113621;28;20618;-61
2023/12/10 07:02:59;;;;;;;18.88;4.13;;;8.80;99.90;;;;;;5113489;28;20657;-61
2023/12/10 07:05:25;;;;;;;17.95;3.50;;;8.80;99.90;;;;;;5113301;28;20226;-61
2023/12/10 07:07:51;;;;;;;19.92;4.60;;;8.90;99.90;;;;;;5113512;28;20185;-61
2023/12/10 07:10:16;;;;;;;20.77;4.25;;;8.80;99.90;;;;;;5113771;28;20530;-61
2023/12/10 07:12:42;;;;;;;13.30;3.58;;;8.90;99.90;;;;;;5113778;28;20248;-61
2023/12/10 07:15:09;;;;;;;16.50;4.97;;;8.80;99.90;;;;;;5111784;28;20334;-61
2023/12/10 07:17:36;;;;;;;17.63;5.13;;;8.80;99.90;;;;;;5107527;28;20177;-60
2023/12/10 07:20:02;;;;;;;18.30;3.72;;;8.80;99.90;;;;;;5113578;28;20230;-61
2023/12/10 07:22:28;;;;;;;17.27;4.55;;;8.80;99.90;;;;;;5113649;28;20219;-61
2023/12/10 07:24:54;;;;;;;17.38;3.92;;;8.80;99.90;;;;;;5111850;28;20188;-61
2023/12/10 07:27:19;;;;;;;19.67;4.38;;;8.90;99.90;;;;;;5113508;28;20212;-60
2023/12/10 07:29:45;;;;;;;18.20;4.38;;;8.90;99.90;;;;;;5113640;28;20209;-61
2023/12/10 07:32:11;;;;;;;16.20;3.88;;;9.00;99.90;;;;;;5113595;28;20173;-60
2023/12/10 07:34:36;;;;;;;17.20;3.70;;;8.90;99.90;;;;;;5113638;28;20196;-61
2023/12/10 07:37:02;;;;;;;19.23;4.18;;;8.90;99.90;;;;;;5113187;28;20550;-61
2023/12/10 07:39:28;;;;;;;14.35;3.80;;;8.90;99.90;;;;;;5111729;28;20246;-60
2023/12/10 07:41:54;;;;;;;18.95;4.35;;;8.90;99.90;;;;;;5110925;28;20538;-62
2023/12/10 07:44:19;;;;;;;17.27;4.13;;;8.80;99.90;;;;;;5112478;28;20256;-61
2023/12/10 07:46:45;;;;;;;16.40;3.85;;;8.70;99.90;;;;;;5112741;28;20249;-60
2023/12/10 07:49:11;;;;;;;17.33;3.88;;;8.70;99.90;;;;;;5113216;28;20174;-60
2023/12/10 07:51:36;;;;;;;16.13;4.13;;;8.80;99.90;;;;;;5113530;28;20679;-60
2023/12/10 07:54:02;;;;;;;15.18;3.50;;;8.80;99.90;;;;;;5113639;28;20181;-60
2023/12/10 07:56:28;;;;;;;18.02;4.38;;;8.90;99.90;;;;;;5113630;28;20181;-60
2023/12/10 07:58:53;;;;;;;24.10;4.53;;;8.90;99.90;;;;;;5113573;28;20231;-61
2023/12/10 08:01:19;;;;;;;18.42;3.53;;;8.90;99.90;;;;;;5113612;28;20537;-61
2023/12/10 08:03:45;;;;;;;21.27;4.57;;;8.80;99.90;;;;;;5113196;28;20696;-61
2023/12/10 08:06:10;;;;;;;20.02;4.50;;;8.80;99.90;;;;;;5111755;28;20292;-60
2023/12/10 08:08:36;;;;;;;19.23;3.92;;;8.80;99.90;;;;;;5113024;28;20176;-60
2023/12/10 08:11:03;;;;;;;17.88;4.28;;;8.80;99.90;;;;;;5113214;28;20195;-60
2023/12/10 08:13:29;;;;;;;17.70;4.25;;;8.80;99.90;;;;;;5113301;28;20183;-60
2023/12/10 08:15:54;;;;;;;18.15;4.25;;;8.70;99.90;;;;;;5113456;28;20247;-60
2023/12/10 08:18:20;;;;;;;14.48;4.20;;;8.80;99.90;;;;;;5113256;28;20177;-61
2023/12/10 08:20:46;;;;;;;16.70;4.03;;;8.80;99.90;;;;;;5112487;28;20572;-61
2023/12/10 08:23:11;;;;;;;16.92;4.07;;;8.80;99.90;;;;;;5112889;28;20374;-60
2023/12/10 08:25:37;;;;;;;17.40;4.38;;;8.80;99.90;;;;;;5115369;28;20579;-61
2023/12/10 08:28:03;;;;;;;18.17;4.13;;;8.80;99.90;;;;;;5116960;28;20201;-61
2023/12/10 08:30:29;;;;;;;18.17;4.55;;;8.90;99.90;;;;;;5116953;28;20242;-61
2023/12/10 08:32:54;;;;;;;21.55;4.47;;;8.90;99.90;;;;;;5116965;28;20192;-61
2023/12/10 08:35:20;;;;;;;18.13;4.50;;;9.00;99.90;;;;;;5117164;28;20165;-61
2023/12/10 08:37:46;;;;;;;17.83;4.07;;;9.20;99.90;;;;;;5116739;28;20573;-61
2023/12/10 08:40:14;;;;;;;23.20;4.30;;;9.10;99.90;;;;;;5116708;28;20181;-61
2023/12/10 08:42:40;;;;;;;14.80;4.15;;;9.00;99.90;;;;;;5116672;28;20280;-61
2023/12/10 08:45:08;;;;;;;23.30;4.15;;;9.00;99.90;;;;;;5116693;28;20204;-61
2023/12/10 08:47:35;;;;;;;17.90;4.13;;;9.20;99.90;;;;;;5116519;28;20197;-61
2023/12/10 08:50:02;;;;;;;22.13;4.90;;;9.20;99.90;;;;;;5116566;28;20173;-61
2023/12/10 08:52:28;;;;;;;19.80;5.00;;;9.30;99.90;;;;;;5116458;28;20177;-61
2023/12/10 08:54:54;;;;;;;20.23;4.72;;;9.30;99.90;;;;;;5116383;28;20663;-61
2023/12/10 08:57:21;;;;;;;23.30;5.18;;;9.30;99.90;;;;;;5116416;28;20204;-61
2023/12/10 08:59:47;;;;;;;19.45;4.88;;;9.30;99.90;;;;;;5115075;28;20178;-60
2023/12/10 09:02:13;;;;;;;18.10;4.43;;;9.20;99.90;;;;;;5116282;28;20174;-61
2023/12/10 09:04:38;;;;;;;20.83;5.93;;;9.20;99.90;;;;;;5115917;27;20276;-60
2023/12/10 09:07:04;;;;;;;20.80;5.35;;;9.30;99.90;;;;;;5115729;28;20189;-61
2023/12/10 09:09:32;;;;;;;20.40;5.70;;;9.30;99.90;;;;;;5116165;28;20186;-61
2023/12/10 09:11:58;;;;;;;21.35;4.10;;;9.40;99.90;;;;;;5116026;28;20177;-60
2023/12/10 09:14:24;;;;;;;22.00;5.07;;;9.40;99.90;;;;;;5116042;28;20181;-60
2023/12/10 09:16:50;;;;;;;22.00;6.00;;;9.50;99.90;;;;;;5115697;28;20230;-60
2023/12/10 09:19:17;;;;;;;19.85;4.55;;;9.50;99.90;;;;;;5115948;28;20173;-61
2023/12/10 09:21:43;;;;;;;18.98;5.13;;;9.50;99.90;;;;;;5115580;28;20264;-61
2023/12/10 09:24:09;;;;;;;21.45;5.38;;;9.50;99.90;;;;;;5115758;28;20188;-62
2023/12/10 09:26:35;;;;;;;22.02;4.97;;;9.70;99.90;;;;;;5115775;28;20275;-60
2023/12/10 09:29:01;;;;;;;20.85;4.55;;;9.70;99.90;;;;;;5115719;28;20185;-60
2023/12/10 09:31:27;;;;;;;21.25;5.68;;;9.70;99.90;;;;;;5115724;28;20181;-60
2023/12/10 09:33:53;;;;;;;24.23;5.80;;;9.80;99.90;;;;;;5115351;28;20524;-62
2023/12/10 09:36:18;;;;;;;19.45;4.70;;;9.80;99.90;;;;;;5114562;28;20276;-62
2023/12/10 09:38:44;;;;;;;19.27;5.10;;;9.90;99.90;;;;;;5115574;28;20176;-60
2023/12/10 09:41:10;;;;;;;16.00;4.63;;;10.00;99.90;;;;;;5115599;28;20204;-62
2023/12/10 09:43:36;;;;;;;25.75;5.40;;;10.00;99.90;;;;;;5115721;28;20205;-62
2023/12/10 09:46:03;;;;;;;23.05;5.35;;;10.20;99.90;;;;;;5115326;28;20178;-62
2023/12/10 09:48:30;;;;;;;23.48;5.57;;;10.30;99.90;;;;;;5115381;28;20353;-62
2023/12/10 09:50:56;;;;;;;21.35;5.75;;;10.30;99.90;;;;;;5115337;28;20260;-62
2023/12/10 09:53:21;;;;;;;29.38;5.82;;;10.30;99.90;;;;;;5125011;27;20263;-62
2023/12/10 09:55:50;;;;;;;20.45;5.38;;;10.20;99.90;;;;;;5135620;27;20252;-61
2023/12/10 09:58:16;;;;;;;20.10;5.53;;;10.20;99.90;;;;;;5135506;27;20530;-62
2023/12/10 10:00:41;;;;;;;22.67;5.38;;;10.30;99.90;;;;;;5135630;27;20168;-60
2023/12/10 10:03:07;;;;;;;26.67;5.20;;;10.30;99.90;;;;;;5135639;27;20173;-60
2023/12/10 10:05:33;;;;;;;26.15;5.90;;;10.40;99.90;;;;;;5135836;27;20271;-62
2023/12/10 10:07:59;;;;;;;21.17;6.35;;;10.50;99.90;;;;;;5135431;27;20291;-60
2023/12/10 10:10:25;;;;;;;24.73;6.32;;;10.60;99.90;;;;;;5135520;27;20208;-63
2023/12/10 10:12:54;;;;;;;19.23;5.45;;;10.60;99.90;;;;;;5135266;27;20184;-62
2023/12/10 10:15:30;;;;;;;22.90;6.00;;;10.60;99.90;;;;;;5135335;27;20214;-61
2023/12/10 10:17:57;;;;;;;29.80;7.05;;;10.50;99.90;;;;;;5135464;27;20251;-61
2023/12/10 10:20:24;;;;;;;26.75;6.28;;;10.60;99.90;;;;;;5135379;27;20607;-61
2023/12/10 10:22:50;;;;;;;20.77;6.18;;;10.70;99.90;;;;;;5135117;27;20236;-60
2023/12/10 10:25:16;;;;;;;24.10;6.53;;;10.80;99.90;;;;;;5135307;27;20171;-60
2023/12/10 10:27:42;;;;;;;26.10;7.00;;;10.90;99.90;;;;;;5134945;27;20200;-61
2023/12/10 10:30:08;;;;;;;23.80;7.05;;;11.00;99.90;;;;;;5135225;27;20185;-60
2023/12/10 10:32:34;;;;;;;25.08;6.47;;;11.00;99.90;;;;;;5135192;27;20169;-61
2023/12/10 10:35:04;;;;;;;29.25;6.90;;;11.10;99.90;;;;;;5135084;27;20164;-60
2023/12/10 10:37:29;;;;;;;26.83;6.80;;;11.10;99.90;;;;;;5135023;27;20271;-60
2023/12/10 10:39:56;;;;;;;25.42;7.00;;;11.10;99.90;;;;;;5135041;27;20256;-62
2023/12/10 10:42:22;;;;;;;28.50;7.90;;;11.10;99.90;;;;;;5134941;27;20177;-61
2023/12/10 10:44:48;;;;;;;30.85;7.70;;;11.10;99.90;;;;;;5134893;27;20214;-60
2023/12/10 10:47:18;;;;;;;29.45;7.63;;;11.10;99.90;;;;;;5134473;27;20263;-60
2023/12/10 10:49:47;;;;;;;28.45;7.68;;;11.10;99.90;;;;;;5134844;27;20614;-60
2023/12/10 10:52:21;;;;;;;21.50;6.47;;;11.10;99.90;;;;;;5134886;27;20514;-60
2023/12/10 10:54:48;;;;;;;26.73;8.05;;;11.10;99.90;;;;;;5134876;27;20175;-60
2023/12/10 10:57:30;;;;;;;24.88;7.10;;;11.10;99.90;;;;;;5134732;27;20204;-61
2023/12/10 10:59:56;;;;;;;29.38;7.10;;;11.30;99.90;;;;;;5134785;27;20153;-61
2023/12/10 11:02:22;;;;;;;30.67;8.57;;;11.30;99.90;;;;;;5134776;27;20613;-60
2023/12/10 11:04:50;;;;;;;26.33;7.80;;;11.40;99.90;;;;;;5134556;27;20246;-60
2023/12/10 11:07:18;;;;;;;24.30;8.07;;;11.30;99.90;;;;;;5134463;27;20208;-60
2023/12/10 11:09:58;;;;;;;30.92;7.78;;;11.40;99.90;;;;;;5134633;27;20183;-60
2023/12/10 11:12:42;;;;;;;24.40;7.35;;;11.40;99.90;;;;;;5134578;27;20168;-60
2023/12/10 11:15:17;;;;;;;27.55;7.50;;;11.40;99.90;;;;;;5134548;27;20244;-60
2023/12/10 11:17:52;;;;;;;32.33;8.02;;;11.40;99.90;;;;;;5134388;27;20168;-60
2023/12/10 11:20:37;;;;;;;28.20;8.18;;;11.50;99.90;;;;;;5134447;28;20180;-61
2023/12/10 11:23:11;;;;;;;34.05;8.68;;;11.70;99.90;;;;;;5134560;28;20637;-61
2023/12/10 11:25:38;;;;;;;33.75;7.95;;;11.70;99.90;;;;;;5134502;28;20157;-61
2023/12/10 11:28:14;;;;;;;29.70;9.32;;;11.70;99.90;;;;;;5134266;27;20215;-61
2023/12/10 11:30:41;;;;;;;28.02;9.30;;;11.80;99.90;;;;;;5134310;28;20212;-61
2023/12/10 11:33:08;;;;;;;27.77;8.27;;;11.90;99.90;;;;;;5134571;28;20221;-61
2023/12/10 11:35:35;;;;;;;31.10;8.40;;;12.00;99.90;;;;;;5134029;28;20530;-61
2023/12/10 11:38:02;;;;;;;27.10;8.38;;;12.00;99.90;;;;;;5134324;28;20175;-61
2023/12/10 11:40:28;;;;;;;27.85;7.63;;;12.00;99.90;;;;;;5134258;28;20522;-61
2023/12/10 11:43:04;;;;;;;32.28;8.48;;;12.10;99.90;;;;;;5134155;28;20176;-61
2023/12/10 11:45:30;;;;;;;35.20;8.77;;;12.10;99.90;;;;;;5134249;27;20153;-61
2023/12/10 11:47:56;;;;;;;25.40;7.90;;;12.00;99.90;;;;;;5134184;28;20208;-61
2023/12/10 11:50:22;;;;;;;29.58;8.63;;;12.00;99.90;;;;;;5134242;28;20180;-61
2023/12/10 11:52:48;;;;;;;27.02;7.85;;;11.90;99.90;;;;;;5134188;28;20165;-61
2023/12/10 11:55:14;;;;;;;25.73;8.15;;;11.90;99.90;;;;;;5134120;27;20168;-60
2023/12/10 11:57:43;;;;;;;29.33;8.10;;;11.90;99.90;;;;;;5134164;28;20176;-60
2023/12/10 12:00:11;;;;;;;28.40;7.80;;;11.90;99.90;;;;;;5136286;27;20629;-60
2023/12/10 12:02:44;;;;;;;28.88;8.75;;;11.90;99.90;;;;;;5138045;27;20188;-61
2023/12/10 12:05:15;;;;;;;33.55;8.60;;;12.00;99.90;;;;;;5137965;27;20183;-60
2023/12/10 12:07:42;;;;;;;27.23;7.85;;;11.90;99.90;;;;;;5137995;27;20604;-60
2023/12/10 12:10:09;;;;;;;31.33;7.85;;;11.80;99.90;;;;;;5137914;27;20186;-59
2023/12/10 12:12:39;;;;;;;23.98;7.07;;;11.80;99.90;;;;;;5137941;27;20161;-59
2023/12/10 12:15:05;;;;;;;25.52;7.93;;;11.70;99.90;;;;;;5137347;27;20169;-60
2023/12/10 12:17:31;;;;;;;26.73;7.63;;;11.70;99.90;;;;;;5136428;27;20187;-60
2023/12/10 12:20:11;;;;;;;26.35;7.78;;;11.70;99.90;;;;;;5137049;27;20182;-60
2023/12/10 12:22:37;;;;;;;26.55;7.68;;;11.70;99.90;;;;;;5137743;27;20569;-60
2023/12/10 12:25:03;;;;;;;33.00;8.32;;;11.50;99.90;;;;;;5137736;27;20169;-59
2023/12/10 12:27:28;;;;;;;22.65;7.07;;;11.50;99.90;;;;;;5137528;27;20192;-59
2023/12/10 12:29:54;;;;;;;23.40;7.35;;;11.50;99.90;;;;;;5137298;27;20657;-60
2023/12/10 12:32:20;;;;;;;25.48;7.40;;;11.40;99.90;;;;;;5137561;27;20177;-60
2023/12/10 12:34:45;;;;;;;28.50;7.55;;;11.50;99.90;;;;;;5137454;27;20179;-60
2023/12/10 12:37:11;;;;;;;23.27;6.60;;;11.60;99.90;;;;;;5137423;27;20210;-60
2023/12/10 12:39:37;;;;;;;24.92;8.00;;;11.70;99.90;;;;;;5137659;27;20169;-59